Time;durP1;ratioP1;P1;durP2;ratioP2;P2;SDS_P1;SDS_P2;PMS_P1;PMS_P2;Temp;Humidity;BMP_temperature;BMP_pressure;BME280_temperature;BME280_humidity;BME280_pressure;Samples;Min_cycle;Max_cycle;Signal;HPM_P1;HPM_P2
2021/11/24 00:01:34;;;;;;;9.00;4.30;;;;;;;;;;5004857;28;82026;-64
2021/11/24 00:04:01;;;;;;;4.75;4.07;;;;;;;;;;5005317;28;81845;-65
2021/11/24 00:06:28;;;;;;;6.75;4.15;;;;;;;;;;5004080;28;84828;-65
2021/11/24 00:08:55;;;;;;;8.73;4.15;;;;;;;;;;5005239;28;84574;-65
2021/11/24 00:11:22;;;;;;;7.50;4.05;;;;;;;;;;5004944;28;81887;-65
2021/11/24 00:13:49;;;;;;;10.20;3.65;;;;;;;;;;5005275;28;82100;-65
2021/11/24 00:16:16;;;;;;;8.20;4.60;;;;;;;;;;5005228;28;82725;-65
2021/11/24 00:18:43;;;;;;;7.32;4.07;;;;;;;;;;5005047;28;83808;-66
2021/11/24 00:21:10;;;;;;;3.70;3.35;;;;;;;;;;5005453;28;81748;-66
2021/11/24 00:23:37;;;;;;;7.22;5.68;;;;;;;;;;5004994;28;81081;-65
2021/11/24 00:26:04;;;;;;;8.77;5.18;;;;;;;;;;5004778;28;82720;-67
2021/11/24 00:28:31;;;;;;;7.68;5.25;;;;;;;;;;5004149;28;83581;-65
2021/11/24 00:30:58;;;;;;;5.97;4.38;;;;;;;;;;5004699;28;82526;-65
2021/11/24 00:33:26;;;;;;;6.28;4.03;;;;;;;;;;5004525;28;81752;-65
2021/11/24 00:35:53;;;;;;;5.45;3.92;;;;;;;;;;5005133;28;83515;-65
2021/11/24 00:38:21;;;;;;;7.00;4.80;;;;;;;;;;5004961;28;83362;-65
2021/11/24 00:40:48;;;;;;;4.65;3.90;;;;;;;;;;5004868;28;81942;-65
2021/11/24 00:43:15;;;;;;;7.63;3.80;;;;;;;;;;5004845;28;81780;-65
2021/11/24 00:45:42;;;;;;;10.43;5.22;;;;;;;;;;5004837;28;83317;-65
2021/11/24 00:48:08;;;;;;;8.23;4.43;;;;;;;;;;5005280;28;82543;-65
2021/11/24 00:50:36;;;;;;;8.35;4.30;;;;;;;;;;5004277;28;81624;-65
2021/11/24 00:53:02;;;;;;;6.75;3.97;;;;;;;;;;5005100;28;81727;-65
2021/11/24 00:55:29;;;;;;;7.40;4.20;;;;;;;;;;5003637;28;84709;-64
2021/11/24 00:57:56;;;;;;;5.40;4.50;;;;;;;;;;5004758;28;84331;-65
2021/11/24 01:00:24;;;;;;;5.82;3.47;;;;;;;;;;5004462;28;81870;-66
2021/11/24 01:02:51;;;;;;;6.97;4.50;;;;;;;;;;5004862;28;81910;-64
2021/11/24 01:05:18;;;;;;;6.88;4.00;;;;;;;;;;5004914;28;82777;-64
2021/11/24 01:07:45;;;;;;;9.93;5.10;;;;;;;;;;5004567;28;83340;-64
2021/11/24 01:10:12;;;;;;;9.73;4.00;;;;;;;;;;5005091;28;81741;-64
2021/11/24 01:12:41;;;;;;;11.13;4.47;;;;;;;;;;4988372;28;80969;-64
2021/11/24 01:15:09;;;;;;;6.00;3.65;;;;;;;;;;5007715;28;83663;-64
2021/11/24 01:17:36;;;;;;;9.75;5.05;;;;;;;;;;5007400;28;83562;-64
2021/11/24 01:20:04;;;;;;;5.18;4.07;;;;;;;;;;5007674;28;82996;-65
2021/11/24 01:22:30;;;;;;;4.93;4.43;;;;;;;;;;5007674;28;81878;-65
2021/11/24 01:24:57;;;;;;;4.88;4.40;;;;;;;;;;5007904;28;83609;-65
2021/11/24 01:27:24;;;;;;;12.25;5.10;;;;;;;;;;5007108;28;83648;-65
2021/11/24 01:29:51;;;;;;;4.60;3.72;;;;;;;;;;5007892;28;81770;-64
2021/11/24 01:32:18;;;;;;;8.82;3.63;;;;;;;;;;5008227;28;81976;-64
2021/11/24 01:34:46;;;;;;;4.18;3.78;;;;;;;;;;5007751;28;83640;-64
2021/11/24 01:37:12;;;;;;;7.20;4.45;;;;;;;;;;5008153;28;83762;-65
2021/11/24 01:39:39;;;;;;;6.05;4.38;;;;;;;;;;5007376;28;81828;-65
2021/11/24 01:42:06;;;;;;;5.57;4.25;;;;;;;;;;5007716;28;81955;-65
2021/11/24 01:44:34;;;;;;;4.70;4.05;;;;;;;;;;5006773;28;84582;-64
2021/11/24 01:47:03;;;;;;;5.93;4.30;;;;;;;;;;5007569;28;84530;-66
2021/11/24 01:49:31;;;;;;;4.18;3.78;;;;;;;;;;5007064;28;81782;-64
2021/11/24 01:51:59;;;;;;;5.50;3.97;;;;;;;;;;5007641;28;81757;-63
2021/11/24 01:54:27;;;;;;;8.80;4.97;;;;;;;;;;5007192;28;83574;-63
2021/11/24 01:56:54;;;;;;;8.10;4.20;;;;;;;;;;5007172;28;83348;-64
2021/11/24 01:59:21;;;;;;;10.20;5.43;;;;;;;;;;5007629;28;81779;-65
2021/11/24 02:01:49;;;;;;;17.67;6.53;;;;;;;;;;5007276;28;81113;-66
2021/11/24 02:04:17;;;;;;;7.55;4.38;;;;;;;;;;5007556;28;83598;-65
2021/11/24 02:06:44;;;;;;;6.95;5.10;;;;;;;;;;5006571;28;83289;-65
2021/11/24 02:09:12;;;;;;;9.60;5.68;;;;;;;;;;5007418;28;83632;-65
2021/11/24 02:11:41;;;;;;;7.28;4.75;;;;;;;;;;5006911;28;81834;-66
2021/11/24 02:14:09;;;;;;;8.05;5.18;;;;;;;;;;5007334;28;83732;-64
2021/11/24 02:16:47;;;;;;;8.70;5.10;;;;;;;;;;5006557;28;83562;-65
2021/11/24 02:19:15;;;;;;;9.48;4.93;;;;;;;;;;5007267;28;81766;-65
2021/11/24 02:21:46;;;;;;;5.78;5.15;;;;;;;;;;5006430;28;81862;-65
2021/11/24 02:24:14;;;;;;;9.07;4.75;;;;;;;;;;5006991;28;83705;-65
2021/11/24 02:26:40;;;;;;;6.95;4.50;;;;;;;;;;5006781;28;83713;-65
2021/11/24 02:29:07;;;;;;;6.13;5.53;;;;;;;;;;5006825;28;81766;-65
2021/11/24 02:31:34;;;;;;;5.75;4.97;;;;;;;;;;5007011;28;81856;-65
2021/11/24 02:34:02;;;;;;;5.20;4.65;;;;;;;;;;5005815;28;84696;-65
2021/11/24 02:36:30;;;;;;;12.65;5.55;;;;;;;;;;5007016;28;83246;-65
2021/11/24 02:38:59;;;;;;;7.95;5.70;;;;;;;;;;5006524;28;81723;-64
2021/11/24 02:41:29;;;;;;;6.30;5.00;;;;;;;;;;5006919;28;81878;-63
2021/11/24 02:43:56;;;;;;;9.02;5.22;;;;;;;;;;5006144;28;82652;-65
2021/11/24 02:46:25;;;;;;;9.73;5.45;;;;;;;;;;5006600;28;83534;-65
2021/11/24 02:48:52;;;;;;;8.65;5.60;;;;;;;;;;5006502;28;81808;-65
2021/11/24 02:51:19;;;;;;;10.10;5.82;;;;;;;;;;5007148;28;81011;-65
2021/11/24 02:53:46;;;;;;;11.00;6.55;;;;;;;;;;5006667;28;82727;-65
2021/11/24 02:56:13;;;;;;;7.72;6.32;;;;;;;;;;5005988;28;83184;-65
2021/11/24 02:58:39;;;;;;;10.88;6.00;;;;;;;;;;5006314;28;84216;-65
2021/11/24 03:01:06;;;;;;;8.23;5.28;;;;;;;;;;5005871;28;81799;-65
2021/11/24 03:03:34;;;;;;;8.70;5.65;;;;;;;;;;5006362;28;83802;-65
2021/11/24 03:06:00;;;;;;;7.47;4.82;;;;;;;;;;5006014;28;82469;-65
2021/11/24 03:08:27;;;;;;;9.98;5.90;;;;;;;;;;5006622;28;81592;-65
2021/11/24 03:10:54;;;;;;;8.50;4.70;;;;;;;;;;5006028;28;81857;-65
2021/11/24 03:13:21;;;;;;;7.43;5.68;;;;;;;;;;5006497;28;83802;-64
2021/11/24 03:15:48;;;;;;;11.02;6.97;;;;;;;;;;5006826;28;83367;-65
2021/11/24 03:18:15;;;;;;;7.05;4.82;;;;;;;;;;5005925;28;81908;-65
2021/11/24 03:20:42;;;;;;;5.55;4.53;;;;;;;;;;5006268;28;81669;-64
2021/11/24 03:23:09;;;;;;;6.22;4.82;;;;;;;;;;5004857;28;84560;-65
2021/11/24 03:25:36;;;;;;;8.00;4.85;;;;;;;;;;5006106;28;83326;-65
2021/11/24 03:28:03;;;;;;;6.30;5.35;;;;;;;;;;5004658;28;81880;-64
2021/11/24 03:30:31;;;;;;;6.47;5.05;;;;;;;;;;5006103;28;81829;-65
2021/11/24 03:33:00;;;;;;;6.63;4.60;;;;;;;;;;5004750;28;83635;-65
2021/11/24 03:35:28;;;;;;;7.25;4.97;;;;;;;;;;5005936;28;83291;-65
2021/11/24 03:37:55;;;;;;;8.95;6.20;;;;;;;;;;5005887;28;81711;-65
2021/11/24 03:40:24;;;;;;;11.00;5.07;;;;;;;;;;5006295;28;81821;-64
2021/11/24 03:42:51;;;;;;;11.10;5.38;;;;;;;;;;5005870;28;83747;-65
2021/11/24 03:45:22;;;;;;;6.53;5.50;;;;;;;;;;5005459;28;83526;-64
2021/11/24 03:47:49;;;;;;;7.78;5.45;;;;;;;;;;5005699;28;82733;-65
2021/11/24 03:50:17;;;;;;;6.70;5.57;;;;;;;;;;5005437;28;81820;-65
2021/11/24 03:52:44;;;;;;;6.60;5.35;;;;;;;;;;5005923;28;82691;-64
2021/11/24 03:55:12;;;;;;;9.38;5.78;;;;;;;;;;5005203;28;83658;-65
2021/11/24 03:57:39;;;;;;;10.07;5.32;;;;;;;;;;5005579;28;81955;-65
2021/11/24 04:00:09;;;;;;;7.95;5.88;;;;;;;;;;5005114;28;82294;-64
2021/11/24 04:02:37;;;;;;;5.57;5.03;;;;;;;;;;5005036;28;83621;-65
2021/11/24 04:05:07;;;;;;;10.07;7.15;;;;;;;;;;5005226;28;83497;-66
2021/11/24 04:07:34;;;;;;;6.68;5.72;;;;;;;;;;4985392;28;81810;-64
2021/11/24 04:10:01;;;;;;;6.95;5.03;;;;;;;;;;4986786;28;81834;-65
2021/11/24 04:12:28;;;;;;;11.10;6.43;;;;;;;;;;5004721;28;84785;-64
2021/11/24 04:14:55;;;;;;;8.10;6.53;;;;;;;;;;5005655;28;84414;-65
2021/11/24 04:17:22;;;;;;;7.50;5.93;;;;;;;;;;5004931;28;82029;-65
2021/11/24 04:19:49;;;;;;;11.85;4.80;;;;;;;;;;4989272;28;81862;-64
2021/11/24 04:22:16;;;;;;;9.45;5.43;;;;;;;;;;5004686;28;83841;-64
2021/11/24 04:24:43;;;;;;;5.10;4.60;;;;;;;;;;5005445;28;83434;-65
2021/11/24 04:27:10;;;;;;;10.60;5.70;;;;;;;;;;5004144;28;81938;-65
2021/11/24 04:29:37;;;;;;;8.88;5.38;;;;;;;;;;5005867;28;80960;-65
2021/11/24 04:32:04;;;;;;;6.10;4.82;;;;;;;;;;5005370;28;82681;-65
2021/11/24 04:34:35;;;;;;;7.32;5.65;;;;;;;;;;5004714;28;82403;-65
2021/11/24 04:37:02;;;;;;;5.32;4.82;;;;;;;;;;5004210;28;82815;-63
2021/11/24 04:39:30;;;;;;;10.40;5.22;;;;;;;;;;4995083;28;82213;-63
2021/11/24 04:41:57;;;;;;;10.50;5.75;;;;;;;;;;5004369;28;83566;-64
2021/11/24 04:44:24;;;;;;;8.05;6.15;;;;;;;;;;5004807;28;83603;-63
2021/11/24 04:46:51;;;;;;;9.32;5.80;;;;;;;;;;5008414;28;81745;-64
2021/11/24 04:49:18;;;;;;;8.35;5.85;;;;;;;;;;5008124;28;82033;-63
2021/11/24 04:51:45;;;;;;;5.85;5.20;;;;;;;;;;5008573;28;82507;-64
2021/11/24 04:54:12;;;;;;;9.05;5.45;;;;;;;;;;5008147;28;83245;-64
2021/11/24 04:56:39;;;;;;;11.18;5.45;;;;;;;;;;5008209;28;82008;-64
2021/11/24 04:59:06;;;;;;;9.05;5.57;;;;;;;;;;5008382;28;81905;-65
2021/11/24 05:01:33;;;;;;;6.72;5.78;;;;;;;;;;5007169;28;84583;-64
2021/11/24 05:04:00;;;;;;;11.02;5.53;;;;;;;;;;5008350;28;84635;-64
2021/11/24 05:06:27;;;;;;;6.97;5.65;;;;;;;;;;5007725;28;81720;-64
2021/11/24 05:08:54;;;;;;;10.48;6.35;;;;;;;;;;5001674;28;81882;-64
2021/11/24 05:11:22;;;;;;;9.60;6.05;;;;;;;;;;5001187;28;83754;-64
2021/11/24 05:13:59;;;;;;;8.70;5.38;;;;;;;;;;5002127;28;82777;-64
2021/11/24 05:16:31;;;;;;;10.07;5.47;;;;;;;;;;5002549;28;81837;-64
2021/11/24 05:18:58;;;;;;;11.88;5.95;;;;;;;;;;5008476;28;81016;-64
2021/11/24 05:21:32;;;;;;;14.65;8.50;;;;;;;;;;5007384;28;83599;-64
2021/11/24 05:24:00;;;;;;;9.77;5.83;;;;;;;;;;5007707;28;83533;-64
2021/11/24 05:26:29;;;;;;;11.23;7.00;;;;;;;;;;5006079;28;82966;-64
2021/11/24 05:28:56;;;;;;;16.42;5.68;;;;;;;;;;5007008;28;81792;-64
2021/11/24 05:31:24;;;;;;;9.65;6.45;;;;;;;;;;5006754;28;83774;-63
2021/11/24 05:33:51;;;;;;;7.68;5.53;;;;;;;;;;5006350;28;83381;-63
2021/11/24 05:36:18;;;;;;;6.13;4.80;;;;;;;;;;5007017;28;81699;-63
2021/11/24 05:38:46;;;;;;;7.95;5.13;;;;;;;;;;5006527;28;81776;-63
2021/11/24 05:41:14;;;;;;;7.35;4.95;;;;;;;;;;5002006;28;88484;-63
2021/11/24 05:43:41;;;;;;;5.45;4.57;;;;;;;;;;5000649;28;88552;-64
2021/11/24 05:46:22;;;;;;;8.52;5.55;;;;;;;;;;5004816;28;87092;-66
2021/11/24 05:48:49;;;;;;;7.50;5.35;;;;;;;;;;5004676;28;86944;-65
2021/11/24 05:51:16;;;;;;;6.93;5.72;;;;;;;;;;5004349;28;89808;-64
2021/11/24 05:53:43;;;;;;;9.90;4.70;;;;;;;;;;4992028;28;89342;-64
2021/11/24 05:56:10;;;;;;;10.13;5.43;;;;;;;;;;5003804;28;87160;-63
2021/11/24 05:58:37;;;;;;;6.25;4.80;;;;;;;;;;5005114;28;86789;-64
2021/11/24 06:01:04;;;;;;;9.32;5.90;;;;;;;;;;5004270;28;88660;-64
2021/11/24 06:03:31;;;;;;;6.65;4.75;;;;;;;;;;5005215;28;89419;-65
2021/11/24 06:05:58;;;;;;;6.75;5.43;;;;;;;;;;5004328;28;86718;-64
2021/11/24 06:08:25;;;;;;;7.85;5.22;;;;;;;;;;5005389;28;86316;-66
2021/11/24 06:10:51;;;;;;;11.60;5.30;;;;;;;;;;5003855;28;88858;-65
2021/11/24 06:13:19;;;;;;;8.35;5.43;;;;;;;;;;5004312;28;88361;-66
2021/11/24 06:15:45;;;;;;;9.73;4.22;;;;;;;;;;5003329;28;87878;-63
2021/11/24 06:18:12;;;;;;;7.53;5.97;;;;;;;;;;5003213;28;86885;-64
2021/11/24 06:20:40;;;;;;;7.10;5.00;;;;;;;;;;5003691;28;88615;-66
2021/11/24 06:23:08;;;;;;;5.13;4.55;;;;;;;;;;5003868;28;87686;-68
2021/11/24 06:25:35;;;;;;;9.45;6.85;;;;;;;;;;5004756;28;86840;-64
2021/11/24 06:28:03;;;;;;;7.00;6.18;;;;;;;;;;5003390;28;87096;-66
2021/11/24 06:30:30;;;;;;;8.13;6.45;;;;;;;;;;5004081;28;87795;-65
2021/11/24 06:32:57;;;;;;;7.15;6.07;;;;;;;;;;4995508;28;88193;-65
2021/11/24 06:35:24;;;;;;;6.90;5.90;;;;;;;;;;4999128;28;86966;-67
2021/11/24 06:37:51;;;;;;;7.45;5.53;;;;;;;;;;4996076;28;86949;-63
2021/11/24 06:40:18;;;;;;;8.32;5.22;;;;;;;;;;4993443;28;89669;-62
2021/11/24 06:42:45;;;;;;;16.27;5.90;;;;;;;;;;5000107;28;88539;-63
2021/11/24 06:45:13;;;;;;;8.65;5.05;;;;;;;;;;4997941;28;86946;-62
2021/11/24 06:47:41;;;;;;;6.20;4.82;;;;;;;;;;4995892;28;87683;-66
2021/11/24 06:50:09;;;;;;;6.75;4.68;;;;;;;;;;4998302;28;87694;-68
2021/11/24 06:52:36;;;;;;;5.43;4.68;;;;;;;;;;5001333;28;87615;-61
2021/11/24 06:55:04;;;;;;;5.18;4.70;;;;;;;;;;4994641;28;86956;-62
2021/11/24 06:57:31;;;;;;;6.00;5.32;;;;;;;;;;5002701;28;86131;-61
2021/11/24 06:59:58;;;;;;;8.77;4.55;;;;;;;;;;4994365;28;88630;-60
2021/11/24 07:02:25;;;;;;;10.73;4.78;;;;;;;;;;5001878;28;88626;-59
2021/11/24 07:04:52;;;;;;;7.95;3.90;;;;;;;;;;4994836;28;90043;-58
2021/11/24 07:07:19;;;;;;;5.43;4.40;;;;;;;;;;5002535;28;86977;-59
2021/11/24 07:09:46;;;;;;;7.65;4.32;;;;;;;;;;5001423;28;87754;-59
2021/11/24 07:12:13;;;;;;;5.03;4.47;;;;;;;;;;5002896;28;86800;-60
2021/11/24 07:14:40;;;;;;;8.65;4.50;;;;;;;;;;5003098;28;86724;-59
2021/11/24 07:17:07;;;;;;;7.88;6.05;;;;;;;;;;5002497;28;87208;-59
2021/11/24 07:19:34;;;;;;;8.13;5.57;;;;;;;;;;5002310;28;87748;-60
2021/11/24 07:22:01;;;;;;;5.68;4.97;;;;;;;;;;5002175;28;88361;-62
2021/11/24 07:24:29;;;;;;;6.30;4.32;;;;;;;;;;5002629;28;86773;-62
2021/11/24 07:26:56;;;;;;;7.13;4.25;;;;;;;;;;5001361;28;87035;-63
2021/11/24 07:29:24;;;;;;;12.57;6.30;;;;;;;;;;5001122;28;89751;-60
2021/11/24 07:31:51;;;;;;;6.55;4.75;;;;;;;;;;5002792;28;89282;-61
2021/11/24 07:34:19;;;;;;;8.23;5.82;;;;;;;;;;5001072;28;87042;-59
2021/11/24 07:36:46;;;;;;;6.40;4.93;;;;;;;;;;5002637;28;87265;-57
2021/11/24 07:39:13;;;;;;;11.52;6.28;;;;;;;;;;5001669;28;88337;-53
2021/11/24 07:41:39;;;;;;;7.93;5.60;;;;;;;;;;5001679;28;87843;-61
2021/11/24 07:44:06;;;;;;;11.70;6.13;;;;;;;;;;5001591;28;87235;-60
2021/11/24 07:46:33;;;;;;;18.98;11.88;;;;;;;;;;5003057;28;86173;-59
2021/11/24 07:49:01;;;;;;;20.63;17.98;;;;;;;;;;5000728;28;88752;-59
2021/11/24 07:51:28;;;;;;;30.73;22.80;;;;;;;;;;4999189;28;88180;-63
2021/11/24 07:53:55;;;;;;;26.02;23.48;;;;;;;;;;4996431;28;88658;-59
2021/11/24 07:56:23;;;;;;;12.52;11.23;;;;;;;;;;4997231;28;87233;-58
2021/11/24 07:58:50;;;;;;;24.48;16.17;;;;;;;;;;4997134;28;88629;-53
2021/11/24 08:01:17;;;;;;;15.35;13.43;;;;;;;;;;4997555;28;88438;-58
2021/11/24 08:03:44;;;;;;;13.15;9.65;;;;;;;;;;4999249;28;86959;-50
2021/11/24 08:06:11;;;;;;;23.05;13.35;;;;;;;;;;5000302;28;86931;-60
2021/11/24 08:08:39;;;;;;;14.75;10.38;;;;;;;;;;5000675;28;88601;-58
2021/11/24 08:11:06;;;;;;;16.50;12.20;;;;;;;;;;5000967;28;88465;-58
2021/11/24 08:13:33;;;;;;;13.35;11.70;;;;;;;;;;5001432;28;87195;-59
2021/11/24 08:16:00;;;;;;;17.48;11.77;;;;;;;;;;5001693;28;86908;-58
2021/11/24 08:18:27;;;;;;;16.80;14.63;;;;;;;;;;5000414;28;89879;-60
2021/11/24 08:20:59;;;;;;;17.58;15.48;;;;;;;;;;4999852;28;89443;-59
2021/11/24 08:23:26;;;;;;;16.15;13.75;;;;;;;;;;5000077;28;86972;-59
2021/11/24 08:25:53;;;;;;;15.63;10.40;;;;;;;;;;5000212;28;87927;-59
2021/11/24 08:28:20;;;;;;;20.08;14.43;;;;;;;;;;4998428;28;87736;-58
2021/11/24 08:30:47;;;;;;;20.73;13.30;;;;;;;;;;4998563;28;88418;-59
2021/11/24 08:33:14;;;;;;;22.98;13.18;;;;;;;;;;4996895;28;87437;-59
2021/11/24 08:35:41;;;;;;;27.55;13.27;;;;;;;;;;4998395;28;86156;-59
2021/11/24 08:38:08;;;;;;;19.88;13.70;;;;;;;;;;4999218;28;88736;-55
2021/11/24 08:40:35;;;;;;;23.83;14.55;;;;;;;;;;4998573;28;88949;-61
2021/11/24 08:43:02;;;;;;;15.10;12.23;;;;;;;;;;4997831;28;87801;-59
2021/11/24 08:45:29;;;;;;;21.75;12.52;;;;;;;;;;4997247;28;87258;-59
2021/11/24 08:47:56;;;;;;;16.33;10.73;;;;;;;;;;4999417;28;88586;-58
2021/11/24 08:50:23;;;;;;;23.20;10.25;;;;;;;;;;4990381;28;88629;-57
2021/11/24 08:52:50;;;;;;;14.18;11.00;;;;;;;;;;4999552;28;86860;-58
2021/11/24 08:55:18;;;;;;;21.05;12.02;;;;;;;;;;4999280;28;87119;-59
2021/11/24 08:57:46;;;;;;;14.38;12.27;;;;;;;;;;4999191;28;88740;-56
2021/11/24 09:00:15;;;;;;;15.55;12.38;;;;;;;;;;5000812;28;88552;-59
2021/11/24 09:02:43;;;;;;;19.42;11.75;;;;;;;;;;5000202;28;86968;-56
2021/11/24 09:05:11;;;;;;;24.23;13.95;;;;;;;;;;5001149;28;87484;-57
2021/11/24 09:07:38;;;;;;;17.73;13.23;;;;;;;;;;4999909;28;89550;-57
2021/11/24 09:10:06;;;;;;;16.75;13.75;;;;;;;;;;5000779;28;89428;-58
2021/11/24 09:12:33;;;;;;;19.60;14.20;;;;;;;;;;4992545;28;86874;-56
2021/11/24 09:15:00;;;;;;;20.77;14.15;;;;;;;;;;5001234;28;87474;-57
2021/11/24 09:17:27;;;;;;;26.17;12.95;;;;;;;;;;5000142;28;87721;-56
2021/11/24 09:19:54;;;;;;;21.13;13.35;;;;;;;;;;5000142;28;88565;-55
2021/11/24 09:22:37;;;;;;;14.80;12.25;;;;;;;;;;4999859;28;86949;-55
2021/11/24 09:25:07;;;;;;;16.98;13.27;;;;;;;;;;5001380;28;86097;-53
2021/11/24 09:27:46;;;;;;;20.95;11.60;;;;;;;;;;4999987;28;88814;-58
2021/11/24 09:30:13;;;;;;;17.75;11.40;;;;;;;;;;4999765;28;88494;-58
2021/11/24 09:32:42;;;;;;;13.10;11.65;;;;;;;;;;4994260;28;88669;-55
2021/11/24 09:35:10;;;;;;;18.50;12.60;;;;;;;;;;5004089;28;86914;-52
2021/11/24 09:37:38;;;;;;;14.20;10.77;;;;;;;;;;5004042;28;88774;-57
2021/11/24 09:40:07;;;;;;;13.60;11.32;;;;;;;;;;5003281;28;88408;-57
2021/11/24 09:42:36;;;;;;;15.07;12.18;;;;;;;;;;5003752;28;87275;-57
2021/11/24 09:45:04;;;;;;;13.15;10.75;;;;;;;;;;5003187;28;86958;-57
2021/11/24 09:47:36;;;;;;;15.82;12.30;;;;;;;;;;5003765;28;88521;-58
2021/11/24 09:50:05;;;;;;;19.48;12.80;;;;;;;;;;5003339;28;88440;-52
2021/11/24 09:52:35;;;;;;;14.90;11.98;;;;;;;;;;5003495;28;86915;-58
2021/11/24 09:55:04;;;;;;;17.40;10.68;;;;;;;;;;4996094;28;87022;-58
2021/11/24 09:57:31;;;;;;;17.98;11.20;;;;;;;;;;5000862;28;89850;-59
2021/11/24 09:59:58;;;;;;;19.17;12.82;;;;;;;;;;5002518;28;89508;-59
2021/11/24 10:02:25;;;;;;;15.48;10.02;;;;;;;;;;5001862;28;87015;-60
2021/11/24 10:04:52;;;;;;;18.42;11.25;;;;;;;;;;5003140;28;86874;-59
2021/11/24 10:07:19;;;;;;;18.35;10.77;;;;;;;;;;5002577;28;88484;-59
2021/11/24 10:09:46;;;;;;;12.15;8.85;;;;;;;;;;5002734;28;88704;-63
2021/11/24 10:12:13;;;;;;;16.40;11.30;;;;;;;;;;5003401;28;87287;-58
2021/11/24 10:14:42;;;;;;;12.95;9.13;;;;;;;;;;5004089;28;86974;-57
2021/11/24 10:17:14;;;;;;;16.35;9.60;;;;;;;;;;5002865;28;88483;-54
2021/11/24 10:20:02;;;;;;;14.73;9.90;;;;;;;;;;5003072;28;88354;-58
2021/11/24 10:22:29;;;;;;;9.98;7.70;;;;;;;;;;5002214;28;87921;-58
2021/11/24 10:25:11;;;;;;;10.10;7.03;;;;;;;;;;5003904;28;86783;-57
2021/11/24 10:27:39;;;;;;;11.32;7.60;;;;;;;;;;5003268;28;88248;-56
2021/11/24 10:30:28;;;;;;;9.68;7.32;;;;;;;;;;5001958;28;88293;-58
2021/11/24 10:33:15;;;;;;;12.00;6.35;;;;;;;;;;5001116;28;86822;-56
2021/11/24 10:35:42;;;;;;;10.25;6.10;;;;;;;;;;5002191;28;87055;-57
2021/11/24 10:38:14;;;;;;;11.73;6.43;;;;;;;;;;5003346;28;87746;-54
2021/11/24 10:40:43;;;;;;;8.60;5.07;;;;;;;;;;5003111;28;88371;-58
2021/11/24 10:43:15;;;;;;;8.07;5.78;;;;;;;;;;5003219;28;86932;-56
2021/11/24 10:45:56;;;;;;;7.75;4.57;;;;;;;;;;5003351;28;86933;-54
2021/11/24 10:48:27;;;;;;;7.45;4.50;;;;;;;;;;5002395;28;88668;-57
2021/11/24 10:50:55;;;;;;;14.43;5.80;;;;;;;;;;5002134;28;88518;-57
2021/11/24 10:53:25;;;;;;;8.40;5.18;;;;;;;;;;5002235;28;87072;-55
2021/11/24 10:55:53;;;;;;;16.92;5.13;;;;;;;;;;5002301;28;86828;-57
2021/11/24 10:58:25;;;;;;;8.18;5.10;;;;;;;;;;5002316;28;87744;-59
2021/11/24 11:00:55;;;;;;;11.77;5.53;;;;;;;;;;5002261;28;88338;-57
2021/11/24 11:03:41;;;;;;;11.02;6.00;;;;;;;;;;4997323;28;86949;-58
2021/11/24 11:06:09;;;;;;;7.50;5.47;;;;;;;;;;5003975;28;86716;-58
2021/11/24 11:08:36;;;;;;;8.52;5.47;;;;;;;;;;5002573;28;87568;-57
2021/11/24 11:11:32;;;;;;;10.20;5.38;;;;;;;;;;5002732;28;88694;-59
2021/11/24 11:14:15;;;;;;;10.43;5.82;;;;;;;;;;5002186;28;87784;-57
2021/11/24 11:16:54;;;;;;;8.70;5.40;;;;;;;;;;5003491;28;86973;-58
2021/11/24 11:19:36;;;;;;;10.13;6.07;;;;;;;;;;5002437;28;88847;-58
2021/11/24 11:22:03;;;;;;;16.48;7.15;;;;;;;;;;5002594;28;88224;-59
2021/11/24 11:24:30;;;;;;;13.93;6.03;;;;;;;;;;5001588;28;86892;-56
2021/11/24 11:26:57;;;;;;;8.98;6.88;;;;;;;;;;5002188;28;87163;-58
2021/11/24 11:29:24;;;;;;;10.95;7.25;;;;;;;;;;5001206;28;88663;-58
2021/11/24 11:31:51;;;;;;;10.68;6.60;;;;;;;;;;5003228;28;88571;-53
2021/11/24 11:34:17;;;;;;;13.45;7.13;;;;;;;;;;5001916;28;86784;-56
2021/11/24 11:36:44;;;;;;;7.80;6.45;;;;;;;;;;5002423;28;86937;-57
2021/11/24 11:39:11;;;;;;;13.00;7.57;;;;;;;;;;5001033;28;88661;-57
2021/11/24 11:41:42;;;;;;;11.90;7.47;;;;;;;;;;5001292;28;89374;-56
2021/11/24 11:44:29;;;;;;;13.68;6.82;;;;;;;;;;4999453;28;87608;-58
2021/11/24 11:47:41;;;;;;;12.20;7.25;;;;;;;;;;5000031;28;86811;-57
2021/11/24 11:50:11;;;;;;;12.23;7.40;;;;;;;;;;5001966;28;88824;-57
2021/11/24 11:52:39;;;;;;;8.10;6.72;;;;;;;;;;5000212;28;88160;-55
2021/11/24 11:55:16;;;;;;;10.77;6.10;;;;;;;;;;5001050;28;86905;-59
2021/11/24 11:57:44;;;;;;;7.47;5.75;;;;;;;;;;5002321;28;86340;-58
2021/11/24 12:00:12;;;;;;;13.35;7.03;;;;;;;;;;5001430;28;88592;-59
2021/11/24 12:02:50;;;;;;;13.10;8.18;;;;;;;;;;5001520;28;87451;-57
2021/11/24 12:05:17;;;;;;;10.45;6.13;;;;;;;;;;4999890;28;87851;-59
2021/11/24 12:08:16;;;;;;;8.13;5.32;;;;;;;;;;5001181;28;86920;-61
2021/11/24 12:11:00;;;;;;;8.38;5.05;;;;;;;;;;4978513;28;88717;-61
2021/11/24 12:13:33;;;;;;;8.57;4.50;;;;;;;;;;5001177;28;88221;-59
2021/11/24 12:16:47;;;;;;;8.30;4.80;;;;;;;;;;5002164;28;86641;-62
2021/11/24 12:19:18;;;;;;;8.77;4.68;;;;;;;;;;4997622;28;89438;-58
2021/11/24 12:21:53;;;;;;;6.10;4.63;;;;;;;;;;4997313;28;87633;-59
2021/11/24 12:24:40;;;;;;;8.07;5.53;;;;;;;;;;4997399;28;88175;-58
2021/11/24 12:27:07;;;;;;;8.48;5.28;;;;;;;;;;4995640;28;87272;-58
2021/11/24 12:29:49;;;;;;;6.45;5.10;;;;;;;;;;4998833;28;87168;-53
2021/11/24 12:32:16;;;;;;;10.27;6.07;;;;;;;;;;4999679;28;89528;-58
2021/11/24 12:34:53;;;;;;;8.63;6.03;;;;;;;;;;4991318;28;88400;-56
2021/11/24 12:37:21;;;;;;;11.32;5.30;;;;;;;;;;5001479;28;86747;-58
2021/11/24 12:39:50;;;;;;;6.97;5.05;;;;;;;;;;5001303;28;86891;-57
2021/11/24 12:42:24;;;;;;;8.60;5.32;;;;;;;;;;5001709;28;89463;-55
2021/11/24 12:44:52;;;;;;;6.68;5.15;;;;;;;;;;5001695;28;87367;-55
2021/11/24 12:47:21;;;;;;;7.68;5.63;;;;;;;;;;5001821;28;86907;-56
2021/11/24 12:49:48;;;;;;;10.07;5.63;;;;;;;;;;5001753;28;86136;-54
2021/11/24 12:52:15;;;;;;;16.73;5.88;;;;;;;;;;5001394;28;88489;-60
2021/11/24 12:54:43;;;;;;;6.35;5.22;;;;;;;;;;5001333;28;88416;-53
2021/11/24 12:57:11;;;;;;;11.27;5.95;;;;;;;;;;5000676;28;88173;-60
2021/11/24 12:59:42;;;;;;;9.73;5.88;;;;;;;;;;5001115;28;87047;-59
2021/11/24 13:02:12;;;;;;;10.63;7.30;;;;;;;;;;5001106;28;87659;-58
2021/11/24 13:04:47;;;;;;;9.80;7.05;;;;;;;;;;5001596;28;88735;-56
2021/11/24 13:07:19;;;;;;;12.35;7.13;;;;;;;;;;5004352;28;86996;-55
2021/11/24 13:09:48;;;;;;;14.75;9.15;;;;;;;;;;5004864;28;86771;-58
2021/11/24 13:12:23;;;;;;;11.88;7.85;;;;;;;;;;4995867;28;88480;-58
2021/11/24 13:14:52;;;;;;;26.92;8.52;;;;;;;;;;5004626;28;88556;-60
2021/11/24 13:17:43;;;;;;;12.90;8.10;;;;;;;;;;5004498;28;86865;-57
2021/11/24 13:20:12;;;;;;;15.73;7.78;;;;;;;;;;5004442;28;87158;-57
2021/11/24 13:22:43;;;;;;;13.82;9.38;;;;;;;;;;5003726;28;89717;-58
2021/11/24 13:25:28;;;;;;;10.43;8.38;;;;;;;;;;5004168;28;89530;-56
2021/11/24 13:27:57;;;;;;;;;;;;;;;;;;5004369;28;86809;-56
2021/11/24 13:30:48;;;;;;;9.48;7.78;;;;;;;;;;5004437;28;86913;-59
2021/11/24 13:33:19;;;;;;;14.25;8.30;;;;;;;;;;5004326;28;88581;-56
2021/11/24 13:35:53;;;;;;;7.78;6.50;;;;;;;;;;5002171;28;88587;-56
2021/11/24 13:38:45;;;;;;;10.13;7.40;;;;;;;;;;5003887;28;86894;-56
2021/11/24 13:41:17;;;;;;;9.70;7.72;;;;;;;;;;5002229;28;86212;-58
2021/11/24 13:43:48;;;;;;;10.55;6.65;;;;;;;;;;5004152;28;87575;-58
2021/11/24 13:46:48;;;;;;;10.45;5.97;;;;;;;;;;5002822;28;88387;-60
2021/11/24 13:49:28;;;;;;;8.60;6.22;;;;;;;;;;5002141;28;88487;-57
2021/11/24 13:52:13;;;;;;;10.68;7.03;;;;;;;;;;5002075;28;86863;-58
2021/11/24 13:54:55;;;;;;;8.57;5.40;;;;;;;;;;5001832;28;88552;-58
2021/11/24 13:57:25;;;;;;;6.85;5.57;;;;;;;;;;5001040;28;88503;-59
2021/11/24 14:00:07;;;;;;;7.05;5.97;;;;;;;;;;5002215;28;86949;-60
2021/11/24 14:02:44;;;;;;;7.15;5.07;;;;;;;;;;5001572;28;87009;-57
2021/11/24 14:05:14;;;;;;;15.43;5.60;;;;;;;;;;5002701;28;88670;-61
2021/11/24 14:07:44;;;;;;;8.48;5.78;;;;;;;;;;5002925;28;88334;-60
2021/11/24 14:10:29;;;;;;;6.32;4.57;;;;;;;;;;5002971;28;86862;-58
2021/11/24 14:12:57;;;;;;;8.65;4.95;;;;;;;;;;5018812;28;87162;-57
2021/11/24 14:15:27;;;;;;;6.28;4.93;;;;;;;;;;4999920;28;89303;-59
2021/11/24 14:17:55;;;;;;;6.60;4.50;;;;;;;;;;5002050;28;89473;-60
2021/11/24 14:20:35;;;;;;;5.18;4.45;;;;;;;;;;5000293;28;86903;-60
2021/11/24 14:23:12;;;;;;;5.32;4.07;;;;;;;;;;5000557;28;86828;-58
2021/11/24 14:25:44;;;;;;;13.25;4.43;;;;;;;;;;5001658;28;89160;-58
2021/11/24 14:28:17;;;;;;;5.60;4.50;;;;;;;;;;5001427;28;87367;-61
2021/11/24 14:30:46;;;;;;;7.60;4.45;;;;;;;;;;5001163;28;87154;-57
2021/11/24 14:33:15;;;;;;;5.07;4.57;;;;;;;;;;5001561;28;86417;-60
2021/11/24 14:35:44;;;;;;;7.82;5.55;;;;;;;;;;4999789;28;88592;-60
2021/11/24 14:38:11;;;;;;;5.07;4.55;;;;;;;;;;5001216;28;87474;-58
2021/11/24 14:40:38;;;;;;;9.27;4.13;;;;;;;;;;5000206;28;87838;-60
2021/11/24 14:43:07;;;;;;;5.88;4.72;;;;;;;;;;5002128;28;86769;-58
2021/11/24 14:45:34;;;;;;;6.75;4.05;;;;;;;;;;5002235;28;87636;-59
2021/11/24 14:48:03;;;;;;;7.60;5.15;;;;;;;;;;5002754;28;88474;-58
2021/11/24 14:50:30;;;;;;;7.18;4.60;;;;;;;;;;5003201;28;86796;-58